createdAt,value
2018-03-27T00:00:05.245Z,0
2018-03-27T00:01:05.574Z,0
2018-03-27T00:02:05.259Z,0
2018-03-27T00:03:04.989Z,0
2018-03-27T00:04:05.275Z,0
2018-03-27T00:05:05.893Z,0
2018-03-27T00:06:05.593Z,0
2018-03-27T00:07:05.315Z,0
2018-03-27T00:08:05.636Z,0
2018-03-27T00:09:05.904Z,0
2018-03-27T00:10:05.363Z,0
2018-03-27T00:11:05.367Z,0
2018-03-27T00:12:05.669Z,0
2018-03-27T00:13:05.991Z,0
2018-03-27T00:14:05.138Z,0
2018-03-27T00:15:05.700Z,0
2018-03-27T00:16:05.448Z,0
2018-03-27T00:17:05.451Z,0
2018-03-27T00:18:05.486Z,0
2018-03-27T00:19:05.189Z,0
2018-03-27T00:20:05.492Z,0
2018-03-27T00:21:05.830Z,0
2018-03-27T00:22:05.517Z,0
2018-03-27T00:23:05.822Z,0
2018-03-27T00:24:05.818Z,0
2018-03-27T00:25:05.269Z,0
2018-03-27T00:26:05.278Z,0
2018-03-27T00:27:05.856Z,0
2018-03-27T00:28:05.897Z,0
2018-03-27T00:29:05.595Z,0
2018-03-27T00:30:05.916Z,0
2018-03-27T00:31:05.623Z,0
2018-03-27T00:32:05.638Z,0
2018-03-27T00:33:06.227Z,0
2018-03-27T00:34:05.381Z,0
2018-03-27T00:35:05.671Z,0
2018-03-27T00:36:05.705Z,0
2018-03-27T00:37:06.046Z,0
2018-03-27T00:38:06.287Z,0
2018-03-27T00:39:06.014Z,0
2018-03-27T00:40:06.082Z,0
2018-03-27T00:41:06.151Z,0
2018-03-27T00:42:05.768Z,0
2018-03-27T00:43:05.772Z,0
2018-03-27T00:44:06.099Z,0
2018-03-27T00:45:06.087Z,0
2018-03-27T00:46:06.197Z,0
2018-03-27T00:47:05.824Z,0
2018-03-27T00:48:06.405Z,0
2018-03-27T00:49:06.139Z,0
2018-03-27T00:50:05.885Z,0
2018-03-27T00:51:05.874Z,0
2018-03-27T00:52:05.904Z,0
2018-03-27T00:53:05.897Z,0
2018-03-27T00:54:05.914Z,0
2018-03-27T00:55:05.944Z,0
2018-03-27T00:56:05.706Z,0
2018-03-27T00:57:06.536Z,0
2018-03-27T00:58:06.246Z,0
2018-03-27T00:59:06.288Z,0
2018-03-27T01:00:05.991Z,0
2018-03-27T01:01:06.019Z,0
2018-03-27T01:02:06.293Z,0
2018-03-27T01:03:06.310Z,0
2018-03-27T01:04:06.041Z,0
2018-03-27T01:05:06.343Z,0
2018-03-27T01:06:06.075Z,0
2018-03-27T01:07:06.367Z,0
2018-03-27T01:08:05.812Z,0
2018-03-27T01:09:06.102Z,0
2018-03-27T01:10:06.398Z,0
2018-03-27T01:11:06.126Z,0
2018-03-27T01:12:06.149Z,0
2018-03-27T01:13:05.870Z,0
2018-03-27T01:14:06.457Z,0
2018-03-27T01:15:06.466Z,0
2018-03-27T01:16:06.481Z,0
2018-03-27T01:17:06.211Z,0
2018-03-27T01:18:06.521Z,0
2018-03-27T01:19:06.228Z,0
2018-03-27T01:20:06.264Z,0
2018-03-27T01:21:06.547Z,0
2018-03-27T01:22:06.551Z,0
2018-03-27T01:23:05.993Z,0
2018-03-27T01:24:06.026Z,0
2018-03-27T01:25:06.020Z,0
2018-03-27T01:26:06.034Z,0
2018-03-27T01:27:06.356Z,0
2018-03-27T01:28:06.343Z,0
2018-03-27T01:29:06.356Z,0
2018-03-27T01:30:06.099Z,0
2018-03-27T01:31:06.711Z,0
2018-03-27T01:32:06.411Z,0
2018-03-27T01:33:06.700Z,0
2018-03-27T01:34:06.700Z,0
2018-03-27T01:35:07.008Z,0
2018-03-27T01:36:06.203Z,0
2018-03-27T01:37:06.171Z,0
2018-03-27T01:38:06.468Z,0
2018-03-27T01:39:06.476Z,0
2018-03-27T01:40:06.495Z,0
2018-03-27T01:41:06.792Z,0
2018-03-27T01:42:06.523Z,0
2018-03-27T01:43:06.246Z,0
2018-03-27T01:44:06.255Z,0
2018-03-27T01:45:06.835Z,0
2018-03-27T01:46:06.612Z,0
2018-03-27T01:47:06.587Z,0
2018-03-27T01:48:06.593Z,0
2018-03-27T01:49:06.890Z,0
2018-03-27T01:50:06.615Z,0
2018-03-27T01:51:06.350Z,0
2018-03-27T01:52:06.641Z,0
2018-03-27T01:53:06.662Z,0
2018-03-27T01:54:06.677Z,0
2018-03-27T01:55:06.396Z,0
2018-03-27T01:56:06.695Z,0
2018-03-27T01:57:06.985Z,0
2018-03-27T01:58:07.055Z,0
2018-03-27T01:59:06.731Z,0
2018-03-27T02:00:06.455Z,0
2018-03-27T02:01:06.751Z,0
2018-03-27T02:02:06.484Z,0
2018-03-27T02:03:06.799Z,0
2018-03-27T02:04:06.787Z,0
2018-03-27T02:05:06.517Z,0
2018-03-27T02:06:07.103Z,0
2018-03-27T02:07:07.271Z,0
2018-03-27T02:08:06.558Z,0
2018-03-27T02:09:06.564Z,0
2018-03-27T02:10:07.148Z,0
2018-03-27T02:11:06.615Z,0
2018-03-27T02:12:06.607Z,0
2018-03-27T02:13:06.902Z,0
2018-03-27T02:14:06.631Z,0
2018-03-27T02:15:07.209Z,0
2018-03-27T02:16:07.322Z,0
2018-03-27T02:17:06.950Z,0
2018-03-27T02:18:06.676Z,0
2018-03-27T02:19:07.542Z,0
2018-03-27T02:20:07.563Z,0
2018-03-27T02:21:07.291Z,0
2018-03-27T02:22:07.456Z,0
2018-03-27T02:23:07.594Z,0
2018-03-27T02:24:07.607Z,0
2018-03-27T02:25:07.046Z,0
2018-03-27T02:26:06.775Z,0
2018-03-27T02:27:07.360Z,0
2018-03-27T02:28:06.517Z,0
2018-03-27T02:29:07.661Z,0
2018-03-27T02:30:07.684Z,0
2018-03-27T02:31:06.832Z,0
2018-03-27T02:32:07.194Z,0
2018-03-27T02:33:07.499Z,0
2018-03-27T02:34:07.755Z,0
2018-03-27T02:35:07.777Z,0
2018-03-27T02:36:06.894Z,0
2018-03-27T02:37:07.774Z,0
2018-03-27T02:38:07.791Z,0
2018-03-27T02:39:07.511Z,0
2018-03-27T02:40:06.951Z,0
2018-03-27T02:41:07.256Z,0
2018-03-27T02:42:07.320Z,0
2018-03-27T02:43:07.280Z,0
2018-03-27T02:44:07.846Z,0
2018-03-27T02:45:07.022Z,0
2018-03-27T02:46:07.596Z,0
2018-03-27T02:47:07.326Z,0
2018-03-27T02:48:07.630Z,0
2018-03-27T02:49:07.944Z,0
2018-03-27T02:50:07.376Z,0
2018-03-27T02:51:07.951Z,0
2018-03-27T02:52:07.692Z,0
2018-03-27T02:53:07.672Z,0
2018-03-27T02:54:07.427Z,0
2018-03-27T02:55:07.416Z,0
2018-03-27T02:56:07.451Z,0
2018-03-27T02:57:07.162Z,0
2018-03-27T02:58:07.463Z,0
2018-03-27T02:59:07.749Z,0
2018-03-27T03:00:07.468Z,0
2018-03-27T03:01:07.763Z,0
2018-03-27T03:02:07.656Z,0
2018-03-27T03:03:07.808Z,0
2018-03-27T03:04:07.854Z,0
2018-03-27T03:05:07.248Z,0
2018-03-27T03:06:07.847Z,0
2018-03-27T03:07:07.861Z,0
2018-03-27T03:08:08.671Z,0
2018-03-27T03:09:07.951Z,0
2018-03-27T03:10:07.531Z,0
2018-03-27T03:11:07.953Z,0
2018-03-27T03:12:08.460Z,0
2018-03-27T03:13:08.653Z,0
2018-03-27T03:14:07.955Z,0
2018-03-27T03:15:08.142Z,0
2018-03-27T03:16:07.937Z,0
2018-03-27T03:17:08.041Z,0
2018-03-27T03:18:08.851Z,0
2018-03-27T03:19:07.847Z,0
2018-03-27T03:20:08.135Z,0
2018-03-27T03:21:08.143Z,0
2018-03-27T03:22:08.744Z,0
2018-03-27T03:23:08.587Z,0
2018-03-27T03:24:08.102Z,0
2018-03-27T03:25:08.723Z,0
2018-03-27T03:26:08.685Z,0
2018-03-27T03:27:08.622Z,0
2018-03-27T03:28:08.188Z,0
2018-03-27T03:29:08.843Z,0
2018-03-27T03:30:08.534Z,0
2018-03-27T03:31:08.294Z,0
2018-03-27T03:32:08.731Z,0
2018-03-27T03:33:08.280Z,0
2018-03-27T03:34:08.615Z,0
2018-03-27T03:35:08.585Z,0
2018-03-27T03:36:08.371Z,0
2018-03-27T03:37:08.895Z,0
2018-03-27T03:38:08.705Z,0
2018-03-27T03:39:08.357Z,0
2018-03-27T03:40:08.855Z,0
2018-03-27T03:41:08.274Z,0
2018-03-27T03:42:08.196Z,0
2018-03-27T03:43:08.493Z,0
2018-03-27T03:44:08.329Z,0
2018-03-27T03:45:07.831Z,0
2018-03-27T03:46:08.340Z,0
2018-03-27T03:47:08.531Z,0
2018-03-27T03:48:08.068Z,0
2018-03-27T03:49:08.087Z,0
2018-03-27T03:50:08.652Z,0
2018-03-27T03:51:08.404Z,0
2018-03-27T03:52:08.105Z,0
2018-03-27T03:53:08.430Z,0
2018-03-27T03:54:08.427Z,0
2018-03-27T03:55:08.427Z,0
2018-03-27T03:56:08.449Z,0
2018-03-27T03:57:08.159Z,0
2018-03-27T03:58:07.624Z,0
2018-03-27T03:59:08.184Z,0
2018-03-27T04:00:08.202Z,0
2018-03-27T04:01:08.215Z,0
2018-03-27T04:02:07.949Z,0
2018-03-27T04:03:08.811Z,0
2018-03-27T04:04:08.572Z,0
2018-03-27T04:05:08.549Z,0
2018-03-27T04:06:08.276Z,0
2018-03-27T04:07:08.286Z,0
2018-03-27T04:08:08.625Z,0
2018-03-27T04:09:08.890Z,0
2018-03-27T04:10:08.344Z,0
2018-03-27T04:11:08.621Z,0
2018-03-27T04:12:08.626Z,0
2018-03-27T04:13:08.647Z,0
2018-03-27T04:14:08.382Z,0
2018-03-27T04:15:08.153Z,0
2018-03-27T04:16:08.505Z,0
2018-03-27T04:17:08.406Z,0
2018-03-27T04:18:08.706Z,0
2018-03-27T04:19:08.432Z,0
2018-03-27T04:20:08.760Z,0
2018-03-27T04:21:08.170Z,0
2018-03-27T04:22:08.185Z,0
2018-03-27T04:23:08.761Z,0
2018-03-27T04:24:08.770Z,0
2018-03-27T04:25:08.509Z,0
2018-03-27T04:26:08.638Z,0
2018-03-27T04:27:08.814Z,0
2018-03-27T04:28:08.543Z,0
2018-03-27T04:29:08.553Z,0
2018-03-27T04:30:08.575Z,0
2018-03-27T04:31:08.602Z,0
2018-03-27T04:32:08.331Z,0
2018-03-27T04:33:08.605Z,0
2018-03-27T04:34:08.906Z,0
2018-03-27T04:35:08.634Z,0
2018-03-27T04:36:08.367Z,0
2018-03-27T04:37:09.217Z,0
2018-03-27T04:38:08.664Z,0
2018-03-27T04:39:08.384Z,0
2018-03-27T04:40:08.689Z,0
2018-03-27T04:41:08.695Z,0
2018-03-27T04:42:08.996Z,0
2018-03-27T04:43:09.291Z,0
2018-03-27T04:44:09.011Z,0
2018-03-27T04:45:08.788Z,0
2018-03-27T04:46:09.043Z,0
2018-03-27T04:47:09.119Z,0
2018-03-27T04:48:09.070Z,0
2018-03-27T04:49:08.798Z,0
2018-03-27T04:50:09.088Z,0
2018-03-27T04:51:08.539Z,0
2018-03-27T04:52:08.829Z,0
2018-03-27T04:53:08.838Z,0
2018-03-27T04:54:09.320Z,0
2018-03-27T04:55:09.161Z,0
2018-03-27T04:56:09.164Z,0
2018-03-27T04:57:09.177Z,0
2018-03-27T04:58:09.185Z,0
2018-03-27T04:59:08.345Z,0
2018-03-27T05:00:08.634Z,0
2018-03-27T05:01:08.654Z,0
2018-03-27T05:02:09.261Z,0
2018-03-27T05:03:08.683Z,0
2018-03-27T05:04:09.565Z,0
2018-03-27T05:05:09.556Z,0
2018-03-27T05:06:08.724Z,0
2018-03-27T05:07:09.329Z,0
2018-03-27T05:08:09.662Z,0
2018-03-27T05:09:08.747Z,0
2018-03-27T05:10:09.612Z,0
2018-03-27T05:11:09.345Z,0
2018-03-27T05:12:09.595Z,0
2018-03-27T05:13:09.661Z,0
2018-03-27T05:14:09.087Z,0
2018-03-27T05:15:09.111Z,0
2018-03-27T05:16:09.113Z,0
2018-03-27T05:17:09.442Z,0
2018-03-27T05:18:09.163Z,0
2018-03-27T05:19:09.438Z,0
2018-03-27T05:20:09.446Z,0
2018-03-27T05:21:09.517Z,0
2018-03-27T05:22:08.908Z,0
2018-03-27T05:23:09.201Z,0
2018-03-27T05:24:09.498Z,0
2018-03-27T05:25:09.512Z,0
2018-03-27T05:26:09.534Z,0
2018-03-27T05:27:09.815Z,0
2018-03-27T05:28:09.548Z,0
2018-03-27T05:29:09.577Z,0
2018-03-27T05:30:09.567Z,0
2018-03-27T05:31:09.292Z,0
2018-03-27T05:32:09.879Z,0
2018-03-27T05:33:09.651Z,0
2018-03-27T05:34:09.634Z,0
2018-03-27T05:35:09.054Z,0
2018-03-27T05:36:09.369Z,0
2018-03-27T05:37:09.934Z,0
2018-03-27T05:38:09.445Z,0
2018-03-27T05:39:09.102Z,0
2018-03-27T05:40:09.411Z,0
2018-03-27T05:41:09.423Z,0
2018-03-27T05:42:09.428Z,0
2018-03-27T05:43:09.154Z,0
2018-03-27T05:44:09.457Z,0
2018-03-27T05:45:09.462Z,0
2018-03-27T05:46:09.473Z,0
2018-03-27T05:47:09.212Z,0
2018-03-27T05:48:09.213Z,5
2018-03-27T05:49:09.820Z,5
2018-03-27T05:50:09.807Z,0
2018-03-27T05:51:09.252Z,5
2018-03-27T05:52:09.262Z,5
2018-03-27T05:53:09.666Z,5
2018-03-27T05:54:10.170Z,5
2018-03-27T05:55:10.157Z,5
2018-03-27T05:56:09.994Z,5
2018-03-27T05:57:09.895Z,5
2018-03-27T05:58:09.613Z,5
2018-03-27T05:59:09.626Z,5
2018-03-27T06:00:09.933Z,5
2018-03-27T06:01:09.939Z,5
2018-03-27T06:02:09.684Z,5
2018-03-27T06:03:09.685Z,5
2018-03-27T06:04:09.982Z,5
2018-03-27T06:05:10.079Z,5
2018-03-27T06:06:09.718Z,5
2018-03-27T06:07:09.730Z,5
2018-03-27T06:08:09.764Z,5
2018-03-27T06:09:10.104Z,10
2018-03-27T06:10:09.781Z,10
2018-03-27T06:11:09.772Z,10
2018-03-27T06:12:10.069Z,10
2018-03-27T06:13:10.084Z,5
2018-03-27T06:14:09.811Z,5
2018-03-27T06:15:10.122Z,5
2018-03-27T06:16:10.135Z,5
2018-03-27T06:17:10.440Z,5
2018-03-27T06:18:09.891Z,5
2018-03-27T06:19:09.912Z,5
2018-03-27T06:20:09.615Z,5
2018-03-27T06:21:10.470Z,5
2018-03-27T06:22:10.474Z,5
2018-03-27T06:23:09.955Z,5
2018-03-27T06:24:10.518Z,5
2018-03-27T06:25:10.249Z,5
2018-03-27T06:26:10.256Z,5
2018-03-27T06:27:09.690Z,5
2018-03-27T06:28:10.265Z,5
2018-03-27T06:29:10.284Z,5
2018-03-27T06:30:10.026Z,5
2018-03-27T06:31:10.590Z,5
2018-03-27T06:32:10.634Z,5
2018-03-27T06:33:10.615Z,5
2018-03-27T06:34:10.115Z,5
2018-03-27T06:35:10.084Z,5
2018-03-27T06:36:10.093Z,5
2018-03-27T06:37:10.374Z,5
2018-03-27T06:38:10.681Z,5
2018-03-27T06:39:10.455Z,5
2018-03-27T06:40:10.139Z,5
2018-03-27T06:41:10.424Z,5
2018-03-27T06:42:10.792Z,5
2018-03-27T06:43:10.165Z,5
2018-03-27T06:44:10.467Z,5
2018-03-27T06:45:10.474Z,5
2018-03-27T06:46:10.778Z,5
2018-03-27T06:47:10.215Z,5
2018-03-27T06:48:10.245Z,5
2018-03-27T06:49:10.287Z,5
2018-03-27T06:50:09.966Z,5
2018-03-27T06:51:10.830Z,5
2018-03-27T06:52:10.274Z,5
2018-03-27T06:53:10.008Z,5
2018-03-27T06:54:10.680Z,5
2018-03-27T06:55:10.901Z,5
2018-03-27T06:56:10.628Z,5
2018-03-27T06:57:10.341Z,5
2018-03-27T06:58:10.064Z,5
2018-03-27T06:59:11.222Z,5
2018-03-27T07:00:10.375Z,5
2018-03-27T07:01:10.388Z,5
2018-03-27T07:02:10.428Z,10
2018-03-27T07:03:10.442Z,10
2018-03-27T07:04:10.782Z,10
2018-03-27T07:05:11.192Z,10
2018-03-27T07:06:11.115Z,10
2018-03-27T07:07:10.812Z,10
2018-03-27T07:08:10.484Z,15
2018-03-27T07:09:10.777Z,15
2018-03-27T07:10:11.165Z,15
2018-03-27T07:11:10.921Z,15
2018-03-27T07:12:10.861Z,10
2018-03-27T07:13:11.531Z,10
2018-03-27T07:14:10.584Z,10
2018-03-27T07:15:10.891Z,10
2018-03-27T07:16:10.300Z,10
2018-03-27T07:17:10.638Z,10
2018-03-27T07:18:10.947Z,10
2018-03-27T07:19:10.705Z,10
2018-03-27T07:20:11.012Z,10
2018-03-27T07:21:11.207Z,10
2018-03-27T07:22:10.930Z,10
2018-03-27T07:23:10.666Z,5
2018-03-27T07:24:10.700Z,5
2018-03-27T07:25:10.714Z,5
2018-03-27T07:26:11.274Z,10
2018-03-27T07:27:10.763Z,10
2018-03-27T07:28:10.444Z,10
2018-03-27T07:29:10.788Z,10
2018-03-27T07:30:10.746Z,10
2018-03-27T07:31:10.766Z,10
2018-03-27T07:32:10.205Z,10
2018-03-27T07:33:10.499Z,10
2018-03-27T07:34:11.374Z,10
2018-03-27T07:35:10.805Z,5
2018-03-27T07:36:10.832Z,5
2018-03-27T07:37:11.118Z,5
2018-03-27T07:38:11.142Z,5
2018-03-27T07:39:10.877Z,5
2018-03-27T07:40:11.174Z,5
2018-03-27T07:41:10.891Z,5
2018-03-27T07:42:11.192Z,5
2018-03-27T07:43:11.206Z,5
2018-03-27T07:44:10.976Z,5
2018-03-27T07:45:10.945Z,5
2018-03-27T07:46:10.954Z,5
2018-03-27T07:47:11.242Z,5
2018-03-27T07:48:10.975Z,5
2018-03-27T07:49:10.751Z,5
2018-03-27T07:50:11.005Z,5
2018-03-27T07:51:11.306Z,5
2018-03-27T07:52:11.033Z,5
2018-03-27T07:53:11.038Z,5
2018-03-27T07:54:10.825Z,5
2018-03-27T07:55:11.353Z,5
2018-03-27T07:56:11.082Z,5
2018-03-27T07:57:11.085Z,5
2018-03-27T07:58:10.869Z,5
2018-03-27T07:59:11.116Z,5
2018-03-27T08:00:11.120Z,10
2018-03-27T08:01:11.436Z,10
2018-03-27T08:02:11.156Z,5
2018-03-27T08:03:11.585Z,5
2018-03-27T08:04:11.466Z,5
2018-03-27T08:05:11.190Z,5
2018-03-27T08:06:11.212Z,5
2018-03-27T08:07:11.222Z,5
2018-03-27T08:08:11.236Z,5
2018-03-27T08:09:11.526Z,5
2018-03-27T08:10:11.261Z,5
2018-03-27T08:11:11.558Z,5
2018-03-27T08:12:11.568Z,5
2018-03-27T08:13:11.019Z,5
2018-03-27T08:14:11.886Z,5
2018-03-27T08:15:11.618Z,5
2018-03-27T08:16:11.339Z,5
2018-03-27T08:17:11.635Z,10
2018-03-27T08:18:11.363Z,10
2018-03-27T08:19:11.659Z,10
2018-03-27T08:20:11.395Z,10
2018-03-27T08:21:11.131Z,10
2018-03-27T08:22:11.414Z,10
2018-03-27T08:23:11.160Z,10
2018-03-27T08:24:12.334Z,10
2018-03-27T08:25:11.734Z,10
2018-03-27T08:26:11.501Z,10
2018-03-27T08:27:11.487Z,10
2018-03-27T08:28:11.497Z,10
2018-03-27T08:29:11.791Z,10
2018-03-27T08:30:11.811Z,10
2018-03-27T08:31:11.250Z,10
2018-03-27T08:32:10.981Z,10
2018-03-27T08:33:11.845Z,10
2018-03-27T08:34:11.580Z,10
2018-03-27T08:35:11.303Z,10
2018-03-27T08:36:11.914Z,15
2018-03-27T08:37:11.328Z,15
2018-03-27T08:38:11.633Z,15
2018-03-27T08:39:12.232Z,10
2018-03-27T08:40:11.774Z,10
2018-03-27T08:41:11.680Z,15
2018-03-27T08:42:11.694Z,15
2018-03-27T08:43:11.994Z,15
2018-03-27T08:44:11.998Z,15
2018-03-27T08:45:12.011Z,15
2018-03-27T08:46:12.037Z,15
2018-03-27T08:47:12.029Z,15
2018-03-27T08:48:11.764Z,15
2018-03-27T08:49:12.069Z,15
2018-03-27T08:50:11.558Z,15
2018-03-27T08:51:12.088Z,15
2018-03-27T08:52:11.549Z,15
2018-03-27T08:53:11.833Z,15
2018-03-27T08:54:12.284Z,15
2018-03-27T08:55:11.292Z,10
2018-03-27T08:56:12.422Z,10
2018-03-27T08:57:12.174Z,10
2018-03-27T08:58:12.194Z,10
2018-03-27T08:59:11.920Z,10
2018-03-27T09:00:12.555Z,10
2018-03-27T09:01:12.516Z,10
2018-03-27T09:02:11.955Z,10
2018-03-27T09:03:12.257Z,10
2018-03-27T09:04:12.264Z,10
2018-03-27T09:05:12.294Z,10
2018-03-27T09:06:12.010Z,15
2018-03-27T09:07:12.025Z,15
2018-03-27T09:08:12.323Z,15
2018-03-27T09:09:12.052Z,15
2018-03-27T09:10:12.075Z,15
2018-03-27T09:11:12.081Z,15
2018-03-27T09:12:12.095Z,15
2018-03-27T09:13:12.681Z,15
2018-03-27T09:14:12.442Z,15
2018-03-27T09:15:12.488Z,15
2018-03-27T09:16:12.150Z,15
2018-03-27T09:17:12.449Z,20
2018-03-27T09:18:12.755Z,20
2018-03-27T09:19:12.202Z,20
2018-03-27T09:20:12.267Z,20
2018-03-27T09:21:12.512Z,20
2018-03-27T09:22:12.521Z,20
2018-03-27T09:23:12.253Z,20
2018-03-27T09:24:12.545Z,20
2018-03-27T09:25:12.329Z,15
2018-03-27T09:26:12.315Z,15
2018-03-27T09:27:12.606Z,20
2018-03-27T09:28:12.336Z,20
2018-03-27T09:29:12.421Z,20
2018-03-27T09:30:12.634Z,20
2018-03-27T09:31:12.392Z,20
2018-03-27T09:32:12.384Z,25
2018-03-27T09:33:12.679Z,25
2018-03-27T09:34:12.407Z,25
2018-03-27T09:35:12.704Z,30
2018-03-27T09:36:12.435Z,30
2018-03-27T09:37:12.734Z,30
2018-03-27T09:38:13.269Z,30
2018-03-27T09:39:12.477Z,30
2018-03-27T09:40:12.532Z,30
2018-03-27T09:41:13.082Z,25
2018-03-27T09:42:12.541Z,25
2018-03-27T09:43:12.536Z,25
2018-03-27T09:44:12.555Z,30
2018-03-27T09:45:12.859Z,30
2018-03-27T09:46:12.592Z,30
2018-03-27T09:47:12.884Z,30
2018-03-27T09:48:12.907Z,30
2018-03-27T09:49:12.629Z,30
2018-03-27T09:50:12.927Z,30
2018-03-27T09:51:12.951Z,35
2018-03-27T09:52:12.397Z,35
2018-03-27T09:53:12.687Z,40
2018-03-27T09:54:12.708Z,40
2018-03-27T09:55:12.487Z,40
2018-03-27T09:56:12.730Z,40
2018-03-27T09:57:12.460Z,35
2018-03-27T09:58:13.056Z,35
2018-03-27T09:59:13.064Z,35
2018-03-27T10:00:12.514Z,35
2018-03-27T10:01:13.095Z,40
2018-03-27T10:02:13.398Z,40
2018-03-27T10:03:12.846Z,40
2018-03-27T10:04:13.149Z,45
2018-03-27T10:05:12.927Z,45
2018-03-27T10:06:12.323Z,45
2018-03-27T10:07:12.915Z,50
2018-03-27T10:08:13.220Z,45
2018-03-27T10:09:12.939Z,45
2018-03-27T10:10:12.958Z,45
2018-03-27T10:11:12.706Z,45
2018-03-27T10:12:12.981Z,40
2018-03-27T10:13:13.006Z,40
2018-03-27T10:14:13.298Z,35
2018-03-27T10:15:13.049Z,35
2018-03-27T10:16:13.268Z,35
2018-03-27T10:17:12.781Z,35
2018-03-27T10:18:13.650Z,35
2018-03-27T10:19:13.382Z,35
2018-03-27T10:20:13.112Z,30
2018-03-27T10:21:13.134Z,30
2018-03-27T10:22:13.615Z,30
2018-03-27T10:23:13.166Z,30
2018-03-27T10:24:13.465Z,30
2018-03-27T10:25:13.192Z,35
2018-03-27T10:26:12.935Z,35
2018-03-27T10:27:12.672Z,35
2018-03-27T10:28:12.961Z,35
2018-03-27T10:29:13.542Z,35
2018-03-27T10:30:13.049Z,35
2018-03-27T10:31:13.009Z,35
2018-03-27T10:32:13.309Z,35
2018-03-27T10:33:13.069Z,35
2018-03-27T10:34:13.628Z,35
2018-03-27T10:35:13.648Z,35
2018-03-27T10:36:13.381Z,35
2018-03-27T10:37:13.126Z,35
2018-03-27T10:38:13.700Z,35
2018-03-27T10:39:13.429Z,30
2018-03-27T10:40:13.504Z,30
2018-03-27T10:41:13.462Z,30
2018-03-27T10:42:13.471Z,30
2018-03-27T10:43:13.499Z,25
2018-03-27T10:44:13.795Z,25
2018-03-27T10:45:13.249Z,25
2018-03-27T10:46:13.261Z,20
2018-03-27T10:47:13.277Z,25
2018-03-27T10:48:13.575Z,25
2018-03-27T10:49:13.627Z,25
2018-03-27T10:50:13.922Z,25
2018-03-27T10:51:13.069Z,25
2018-03-27T10:52:13.647Z,30
2018-03-27T10:53:14.229Z,30
2018-03-27T10:54:13.396Z,35
2018-03-27T10:55:14.055Z,35
2018-03-27T10:56:13.432Z,30
2018-03-27T10:57:14.020Z,25
2018-03-27T10:58:14.038Z,20
2018-03-27T10:59:13.770Z,20
2018-03-27T11:00:13.791Z,20
2018-03-27T11:01:13.800Z,20
2018-03-27T11:02:14.393Z,20
2018-03-27T11:03:13.554Z,25
2018-03-27T11:04:14.150Z,25
2018-03-27T11:05:14.420Z,20
2018-03-27T11:06:13.611Z,15
2018-03-27T11:07:13.620Z,15
2018-03-27T11:08:14.269Z,15
2018-03-27T11:09:14.224Z,15
2018-03-27T11:10:14.020Z,15
2018-03-27T11:11:13.994Z,15
2018-03-27T11:12:14.286Z,15
2018-03-27T11:13:14.301Z,15
2018-03-27T11:14:13.742Z,15
2018-03-27T11:15:14.327Z,15
2018-03-27T11:16:14.353Z,15
2018-03-27T11:17:14.362Z,15
2018-03-27T11:18:14.396Z,15
2018-03-27T11:19:14.119Z,15
2018-03-27T11:20:14.423Z,15
2018-03-27T11:21:14.729Z,15
2018-03-27T11:22:14.169Z,15
2018-03-27T11:23:14.193Z,15
2018-03-27T11:24:14.502Z,15
2018-03-27T11:25:14.278Z,15
2018-03-27T11:26:13.952Z,15
2018-03-27T11:27:14.305Z,15
2018-03-27T11:28:14.846Z,15
2018-03-27T11:29:14.370Z,15
2018-03-27T11:30:14.600Z,20
2018-03-27T11:31:14.041Z,20
2018-03-27T11:32:14.643Z,25
2018-03-27T11:33:14.979Z,25
2018-03-27T11:34:14.094Z,25
2018-03-27T11:35:14.972Z,35
2018-03-27T11:36:14.698Z,35
2018-03-27T11:37:14.724Z,40
2018-03-27T11:38:15.025Z,40
2018-03-27T11:39:14.750Z,45
2018-03-27T11:40:14.767Z,45
2018-03-27T11:41:14.797Z,45
2018-03-27T11:42:15.098Z,40
2018-03-27T11:43:14.883Z,40
2018-03-27T11:44:14.556Z,40
2018-03-27T11:45:15.249Z,35
2018-03-27T11:46:14.595Z,40
2018-03-27T11:47:15.185Z,35
2018-03-27T11:48:14.640Z,35
2018-03-27T11:49:15.211Z,35
2018-03-27T11:50:14.955Z,35
2018-03-27T11:51:15.246Z,40
2018-03-27T11:52:15.274Z,45
2018-03-27T11:53:15.005Z,45
2018-03-27T11:54:15.045Z,45
2018-03-27T11:55:14.748Z,50
2018-03-27T11:56:14.523Z,50
2018-03-27T11:57:15.073Z,50
2018-03-27T11:58:15.367Z,50
2018-03-27T11:59:14.828Z,45
2018-03-27T12:00:15.419Z,50
2018-03-27T12:01:14.858Z,45
2018-03-27T12:02:15.170Z,45
2018-03-27T12:03:15.460Z,40
2018-03-27T12:04:14.633Z,45
2018-03-27T12:05:15.500Z,45
2018-03-27T12:06:15.455Z,50
2018-03-27T12:07:14.969Z,55
2018-03-27T12:08:14.996Z,55
2018-03-27T12:09:15.299Z,55
2018-03-27T12:10:15.594Z,60
2018-03-27T12:11:15.324Z,60
2018-03-27T12:12:14.774Z,55
2018-03-27T12:13:15.076Z,50
2018-03-27T12:14:14.821Z,45
2018-03-27T12:15:15.710Z,45
2018-03-27T12:16:15.130Z,45
2018-03-27T12:17:15.154Z,45
2018-03-27T12:18:15.454Z,45
2018-03-27T12:19:15.191Z,50
2018-03-27T12:20:14.919Z,50
2018-03-27T12:21:15.785Z,50
2018-03-27T12:22:15.261Z,45
2018-03-27T12:23:15.551Z,40
2018-03-27T12:24:15.568Z,35
2018-03-27T12:25:15.595Z,30
2018-03-27T12:26:14.753Z,30
2018-03-27T12:27:15.620Z,30
2018-03-27T12:28:15.359Z,25
2018-03-27T12:29:15.392Z,25
2018-03-27T12:30:15.961Z,25
2018-03-27T12:31:15.748Z,25
2018-03-27T12:32:15.717Z,25
2018-03-27T12:33:15.737Z,25
2018-03-27T12:34:15.486Z,25
2018-03-27T12:35:15.496Z,25
2018-03-27T12:36:15.846Z,25
2018-03-27T12:37:15.533Z,25
2018-03-27T12:38:15.269Z,25
2018-03-27T12:39:15.846Z,25
2018-03-27T12:40:15.862Z,25
2018-03-27T12:41:15.939Z,25
2018-03-27T12:42:15.981Z,25
2018-03-27T12:43:15.923Z,25
2018-03-27T12:44:15.952Z,25
2018-03-27T12:45:16.265Z,25
2018-03-27T12:46:16.259Z,20
2018-03-27T12:47:16.281Z,20
2018-03-27T12:48:16.302Z,20
2018-03-27T12:49:16.335Z,20
2018-03-27T12:50:16.056Z,20
2018-03-27T12:51:16.077Z,20
2018-03-27T12:52:16.100Z,25
2018-03-27T12:53:16.495Z,25
2018-03-27T12:54:16.616Z,25
2018-03-27T12:55:16.152Z,25
2018-03-27T12:56:15.631Z,25
2018-03-27T12:57:15.902Z,25
2018-03-27T12:58:16.239Z,25
2018-03-27T12:59:16.020Z,30
2018-03-27T13:00:16.544Z,30
2018-03-27T13:01:16.601Z,30
2018-03-27T13:02:16.299Z,30
2018-03-27T13:03:16.031Z,30
2018-03-27T13:04:16.045Z,30
2018-03-27T13:05:16.346Z,30
2018-03-27T13:06:15.847Z,30
2018-03-27T13:07:16.098Z,25
2018-03-27T13:08:16.690Z,25
2018-03-27T13:09:16.481Z,25
2018-03-27T13:10:16.342Z,25
2018-03-27T13:11:17.659Z,25
2018-03-27T13:12:16.223Z,25
2018-03-27T13:13:16.508Z,25
2018-03-27T13:14:16.241Z,25
2018-03-27T13:15:17.214Z,25
2018-03-27T13:16:16.564Z,25
2018-03-27T13:17:16.350Z,25
2018-03-27T13:18:16.316Z,25
2018-03-27T13:19:16.336Z,25
2018-03-27T13:20:16.637Z,25
2018-03-27T13:21:16.658Z,25
2018-03-27T13:22:16.679Z,25
2018-03-27T13:23:16.417Z,25
2018-03-27T13:24:17.018Z,25
2018-03-27T13:25:16.460Z,25
2018-03-27T13:26:17.051Z,25
2018-03-27T13:27:16.493Z,25
2018-03-27T13:28:17.083Z,25
2018-03-27T13:29:17.101Z,25
2018-03-27T13:30:16.852Z,25
2018-03-27T13:31:16.848Z,25
2018-03-27T13:32:17.130Z,25
2018-03-27T13:33:16.905Z,25
2018-03-27T13:34:16.634Z,25
2018-03-27T13:35:16.666Z,25
2018-03-27T13:36:17.005Z,25
2018-03-27T13:37:16.980Z,25
2018-03-27T13:38:17.283Z,25
2018-03-27T13:39:17.340Z,25
2018-03-27T13:40:17.315Z,25
2018-03-27T13:41:17.395Z,25
2018-03-27T13:42:16.511Z,25
2018-03-27T13:43:17.099Z,25
2018-03-27T13:44:17.128Z,25
2018-03-27T13:45:16.571Z,25
2018-03-27T13:46:17.213Z,25
2018-03-27T13:47:17.180Z,25
2018-03-27T13:48:17.193Z,25
2018-03-27T13:49:16.933Z,25
2018-03-27T13:50:17.234Z,25
2018-03-27T13:51:17.263Z,25
2018-03-27T13:52:17.556Z,25
2018-03-27T13:53:17.296Z,25
2018-03-27T13:54:17.311Z,25
2018-03-27T13:55:17.341Z,25
2018-03-27T13:56:17.402Z,25
2018-03-27T13:57:16.812Z,25
2018-03-27T13:58:17.395Z,25
2018-03-27T13:59:17.125Z,25
2018-03-27T14:00:17.164Z,25
2018-03-27T14:01:17.175Z,25
2018-03-27T14:02:17.478Z,25
2018-03-27T14:03:17.508Z,25
2018-03-27T14:04:17.811Z,30
2018-03-27T14:05:17.540Z,25
2018-03-27T14:06:17.616Z,25
2018-03-27T14:07:17.868Z,30
2018-03-27T14:08:17.599Z,30
2018-03-27T14:09:17.386Z,30
2018-03-27T14:10:17.372Z,30
2018-03-27T14:11:17.476Z,30
2018-03-27T14:12:17.676Z,30
2018-03-27T14:13:17.767Z,30
2018-03-27T14:14:17.437Z,30
2018-03-27T14:15:17.461Z,30
2018-03-27T14:16:17.759Z,30
2018-03-27T14:17:17.217Z,30
2018-03-27T14:18:17.236Z,30
2018-03-27T14:19:17.823Z,30
2018-03-27T14:20:18.152Z,30
2018-03-27T14:21:17.582Z,30
2018-03-27T14:22:18.167Z,30
2018-03-27T14:23:17.343Z,30
2018-03-27T14:24:17.642Z,30
2018-03-27T14:25:17.384Z,30
2018-03-27T14:26:17.968Z,30
2018-03-27T14:27:17.420Z,30
2018-03-27T14:28:18.285Z,30
2018-03-27T14:29:17.744Z,30
2018-03-27T14:30:17.762Z,30
2018-03-27T14:31:17.784Z,30
2018-03-27T14:32:18.090Z,30